首页
METAR-TAF:

METAR-TAF

机场 :

喀土穆国际机场

喀土穆, 苏丹共和国

纬度: 15-36N, 经度: 032-33E, 海拔: 382米

当前天气观测

该预报发布于14分钟前的03:00 UTC
风速13节,风向
温度 25°C
湿度 21%
气压 1009 hPa
能见度10公里或以上
1500米以下无云,无积雨云

METAR: HSSS 170300Z 36013KT CAVOK 25/01 Q1009 NOSIG

时间: 05:14 (03:14 UTC)

预报

该预报发布于4小时和14分钟前的23:00 UTC
预报有效从17日的 00点(UTC)到 18日的 06点(UTC)
风速10节,风向北转西北,有时为20节阵风
能见度10公里或以上
1500米以下无云,无积雨云
几率 30% :
短暂存在
从 17日的 06点(UTC)到 17日的 09点(UTC)
能見度: 6000

TAF: HSSS 162300Z 1700/1806 34010G20KT CAVOK PROB30 TEMPO 1706/1709 6000

超过4000个机场的气象观测和天气预报(METAR&TAF报告)。

可查询的气象台以黄色和红色小点在地图上表示。

将鼠标移到小点上方,可查看气象台名称。

然后点击查看天气观测和预报。

如需切换地图:点击带黑十字的绿色按钮放大地图;点击带横线的绿色按钮缩小地图;或者点击绿色箭头查看邻近地区的地图。


METAR-TAF: